sensor_id;sensor_type;location;lat;lon;timestamp;P1;durP1;ratioP1;P2;durP2;ratioP2
26656;SDS011;14279;50.010;8.260;2024-02-16T00:00:03;13.93;;;5.00;;
26656;SDS011;14279;50.010;8.260;2024-02-16T00:02:29;11.47;;;4.60;;
26656;SDS011;14279;50.010;8.260;2024-02-16T00:04:54;9.57;;;4.77;;
26656;SDS011;14279;50.010;8.260;2024-02-16T00:07:20;11.03;;;4.27;;
26656;SDS011;14279;50.010;8.260;2024-02-16T00:09:45;8.43;;;4.30;;
26656;SDS011;14279;50.010;8.260;2024-02-16T00:12:11;13.63;;;4.50;;
26656;SDS011;14279;50.010;8.260;2024-02-16T00:14:36;16.57;;;4.47;;
26656;SDS011;14279;50.010;8.260;2024-02-16T00:17:02;9.93;;;4.27;;
26656;SDS011;14279;50.010;8.260;2024-02-16T00:19:27;8.80;;;4.70;;
26656;SDS011;14279;50.010;8.260;2024-02-16T00:21:52;8.97;;;4.47;;
26656;SDS011;14279;50.010;8.260;2024-02-16T00:24:18;9.13;;;4.03;;
26656;SDS011;14279;50.010;8.260;2024-02-16T00:26:43;9.70;;;4.90;;
26656;SDS011;14279;50.010;8.260;2024-02-16T00:29:10;10.33;;;4.40;;
26656;SDS011;14279;50.010;8.260;2024-02-16T00:31:35;7.17;;;4.30;;
26656;SDS011;14279;50.010;8.260;2024-02-16T00:34:01;16.80;;;4.73;;
26656;SDS011;14279;50.010;8.260;2024-02-16T00:36:26;12.90;;;4.50;;
26656;SDS011;14279;50.010;8.260;2024-02-16T00:38:52;8.80;;;3.90;;
26656;SDS011;14279;50.010;8.260;2024-02-16T00:41:21;9.03;;;4.57;;
26656;SDS011;14279;50.010;8.260;2024-02-16T00:43:47;9.23;;;4.57;;
26656;SDS011;14279;50.010;8.260;2024-02-16T00:46:13;9.23;;;5.03;;
26656;SDS011;14279;50.010;8.260;2024-02-16T00:48:39;12.10;;;5.27;;
26656;SDS011;14279;50.010;8.260;2024-02-16T00:51:04;12.67;;;4.57;;
26656;SDS011;14279;50.010;8.260;2024-02-16T00:53:30;15.53;;;4.20;;
26656;SDS011;14279;50.010;8.260;2024-02-16T00:55:55;11.30;;;4.73;;
26656;SDS011;14279;50.010;8.260;2024-02-16T00:58:20;9.60;;;4.50;;
26656;SDS011;14279;50.010;8.260;2024-02-16T01:00:46;8.73;;;4.20;;
26656;SDS011;14279;50.010;8.260;2024-02-16T01:03:11;8.83;;;3.93;;
26656;SDS011;14279;50.010;8.260;2024-02-16T01:05:38;11.43;;;4.63;;
26656;SDS011;14279;50.010;8.260;2024-02-16T01:08:03;8.37;;;3.90;;
26656;SDS011;14279;50.010;8.260;2024-02-16T01:10:29;9.40;;;4.43;;
26656;SDS011;14279;50.010;8.260;2024-02-16T01:12:54;12.13;;;4.40;;
26656;SDS011;14279;50.010;8.260;2024-02-16T01:15:21;9.73;;;4.77;;
26656;SDS011;14279;50.010;8.260;2024-02-16T01:17:46;8.30;;;4.67;;
26656;SDS011;14279;50.010;8.260;2024-02-16T01:20:11;10.90;;;4.17;;
26656;SDS011;14279;50.010;8.260;2024-02-16T01:22:37;6.90;;;4.30;;
26656;SDS011;14279;50.010;8.260;2024-02-16T01:25:03;11.77;;;4.17;;
26656;SDS011;14279;50.010;8.260;2024-02-16T01:27:28;11.80;;;4.33;;
26656;SDS011;14279;50.010;8.260;2024-02-16T01:29:54;13.07;;;4.67;;
26656;SDS011;14279;50.010;8.260;2024-02-16T01:32:19;12.57;;;4.50;;
26656;SDS011;14279;50.010;8.260;2024-02-16T01:34:44;7.80;;;4.30;;
26656;SDS011;14279;50.010;8.260;2024-02-16T01:37:12;9.77;;;5.37;;
26656;SDS011;14279;50.010;8.260;2024-02-16T01:39:37;12.10;;;4.73;;
26656;SDS011;14279;50.010;8.260;2024-02-16T01:42:02;12.00;;;4.60;;
26656;SDS011;14279;50.010;8.260;2024-02-16T01:44:28;8.53;;;4.83;;
26656;SDS011;14279;50.010;8.260;2024-02-16T01:46:53;6.83;;;4.47;;
26656;SDS011;14279;50.010;8.260;2024-02-16T01:49:18;9.13;;;4.27;;
26656;SDS011;14279;50.010;8.260;2024-02-16T01:51:44;7.93;;;4.40;;
26656;SDS011;14279;50.010;8.260;2024-02-16T01:54:12;7.90;;;4.30;;
26656;SDS011;14279;50.010;8.260;2024-02-16T01:56:37;8.87;;;4.23;;
26656;SDS011;14279;50.010;8.260;2024-02-16T01:59:03;10.50;;;4.33;;
26656;SDS011;14279;50.010;8.260;2024-02-16T02:01:29;7.80;;;4.53;;
26656;SDS011;14279;50.010;8.260;2024-02-16T02:03:54;11.10;;;4.33;;
26656;SDS011;14279;50.010;8.260;2024-02-16T02:06:20;9.07;;;4.30;;
26656;SDS011;14279;50.010;8.260;2024-02-16T02:08:46;7.30;;;4.87;;
26656;SDS011;14279;50.010;8.260;2024-02-16T02:11:11;11.10;;;4.77;;
26656;SDS011;14279;50.010;8.260;2024-02-16T02:13:37;9.23;;;4.83;;
26656;SDS011;14279;50.010;8.260;2024-02-16T02:16:02;6.93;;;4.57;;
26656;SDS011;14279;50.010;8.260;2024-02-16T02:18:29;6.90;;;4.83;;
26656;SDS011;14279;50.010;8.260;2024-02-16T02:20:54;9.70;;;5.07;;
26656;SDS011;14279;50.010;8.260;2024-02-16T02:23:20;9.73;;;4.90;;
26656;SDS011;14279;50.010;8.260;2024-02-16T02:25:45;12.50;;;4.93;;
26656;SDS011;14279;50.010;8.260;2024-02-16T02:28:12;16.93;;;6.03;;
26656;SDS011;14279;50.010;8.260;2024-02-16T02:30:38;9.17;;;5.10;;
26656;SDS011;14279;50.010;8.260;2024-02-16T02:33:03;12.50;;;5.70;;
26656;SDS011;14279;50.010;8.260;2024-02-16T02:35:29;13.60;;;5.17;;
26656;SDS011;14279;50.010;8.260;2024-02-16T02:37:55;10.00;;;4.67;;
26656;SDS011;14279;50.010;8.260;2024-02-16T02:40:20;10.10;;;4.60;;
26656;SDS011;14279;50.010;8.260;2024-02-16T02:42:45;11.23;;;5.20;;
26656;SDS011;14279;50.010;8.260;2024-02-16T02:45:10;8.47;;;5.10;;
26656;SDS011;14279;50.010;8.260;2024-02-16T02:47:36;11.27;;;5.43;;
26656;SDS011;14279;50.010;8.260;2024-02-16T02:50:01;7.00;;;3.90;;
26656;SDS011;14279;50.010;8.260;2024-02-16T02:52:27;9.73;;;4.90;;
26656;SDS011;14279;50.010;8.260;2024-02-16T02:54:52;9.10;;;5.30;;
26656;SDS011;14279;50.010;8.260;2024-02-16T02:57:18;7.10;;;5.00;;
26656;SDS011;14279;50.010;8.260;2024-02-16T02:59:43;10.17;;;4.77;;
26656;SDS011;14279;50.010;8.260;2024-02-16T03:02:10;8.40;;;5.07;;
26656;SDS011;14279;50.010;8.260;2024-02-16T03:04:35;9.03;;;4.77;;
26656;SDS011;14279;50.010;8.260;2024-02-16T03:07:00;12.67;;;4.60;;
26656;SDS011;14279;50.010;8.260;2024-02-16T03:09:26;15.50;;;5.37;;
26656;SDS011;14279;50.010;8.260;2024-02-16T03:11:51;11.37;;;4.80;;
26656;SDS011;14279;50.010;8.260;2024-02-16T03:14:17;10.47;;;4.77;;
26656;SDS011;14279;50.010;8.260;2024-02-16T03:16:42;11.33;;;5.23;;
26656;SDS011;14279;50.010;8.260;2024-02-16T03:19:08;10.20;;;5.17;;
26656;SDS011;14279;50.010;8.260;2024-02-16T03:21:36;13.03;;;5.70;;
26656;SDS011;14279;50.010;8.260;2024-02-16T03:24:02;14.93;;;4.63;;
26656;SDS011;14279;50.010;8.260;2024-02-16T03:26:29;7.30;;;4.60;;
26656;SDS011;14279;50.010;8.260;2024-02-16T03:28:54;6.83;;;4.23;;
26656;SDS011;14279;50.010;8.260;2024-02-16T03:31:21;6.97;;;4.53;;
26656;SDS011;14279;50.010;8.260;2024-02-16T03:33:48;9.10;;;5.00;;
26656;SDS011;14279;50.010;8.260;2024-02-16T03:36:17;8.70;;;4.50;;
26656;SDS011;14279;50.010;8.260;2024-02-16T03:38:44;10.23;;;5.60;;
26656;SDS011;14279;50.010;8.260;2024-02-16T03:41:19;12.67;;;5.13;;
26656;SDS011;14279;50.010;8.260;2024-02-16T03:43:46;10.63;;;5.63;;
26656;SDS011;14279;50.010;8.260;2024-02-16T03:46:11;9.83;;;4.97;;
26656;SDS011;14279;50.010;8.260;2024-02-16T03:48:36;11.00;;;5.37;;
26656;SDS011;14279;50.010;8.260;2024-02-16T03:51:02;8.43;;;4.90;;
26656;SDS011;14279;50.010;8.260;2024-02-16T03:53:30;8.77;;;5.00;;
26656;SDS011;14279;50.010;8.260;2024-02-16T03:55:56;7.63;;;4.60;;
26656;SDS011;14279;50.010;8.260;2024-02-16T03:58:22;19.27;;;5.33;;
26656;SDS011;14279;50.010;8.260;2024-02-16T04:00:47;13.40;;;5.10;;
26656;SDS011;14279;50.010;8.260;2024-02-16T04:03:14;14.60;;;5.33;;
26656;SDS011;14279;50.010;8.260;2024-02-16T04:05:39;8.20;;;5.10;;
26656;SDS011;14279;50.010;8.260;2024-02-16T04:08:06;12.80;;;5.43;;
26656;SDS011;14279;50.010;8.260;2024-02-16T04:10:31;11.83;;;5.10;;
26656;SDS011;14279;50.010;8.260;2024-02-16T04:12:57;4.97;;;4.27;;
26656;SDS011;14279;50.010;8.260;2024-02-16T04:15:23;12.13;;;5.20;;
26656;SDS011;14279;50.010;8.260;2024-02-16T04:17:48;13.47;;;4.60;;
26656;SDS011;14279;50.010;8.260;2024-02-16T04:20:15;8.03;;;4.77;;
26656;SDS011;14279;50.010;8.260;2024-02-16T04:22:41;14.07;;;5.17;;
26656;SDS011;14279;50.010;8.260;2024-02-16T04:25:06;6.77;;;5.20;;
26656;SDS011;14279;50.010;8.260;2024-02-16T04:27:32;6.00;;;4.87;;
26656;SDS011;14279;50.010;8.260;2024-02-16T04:29:57;10.70;;;5.03;;
26656;SDS011;14279;50.010;8.260;2024-02-16T04:32:22;16.13;;;5.40;;
26656;SDS011;14279;50.010;8.260;2024-02-16T04:34:50;13.40;;;5.33;;
26656;SDS011;14279;50.010;8.260;2024-02-16T04:37:17;19.33;;;5.93;;
26656;SDS011;14279;50.010;8.260;2024-02-16T04:39:43;7.80;;;4.87;;
26656;SDS011;14279;50.010;8.260;2024-02-16T04:42:09;9.67;;;5.10;;
26656;SDS011;14279;50.010;8.260;2024-02-16T04:44:36;16.33;;;5.83;;
26656;SDS011;14279;50.010;8.260;2024-02-16T04:47:03;10.93;;;5.63;;
26656;SDS011;14279;50.010;8.260;2024-02-16T04:49:29;13.33;;;6.33;;
26656;SDS011;14279;50.010;8.260;2024-02-16T04:51:54;12.93;;;5.67;;
26656;SDS011;14279;50.010;8.260;2024-02-16T04:54:19;16.50;;;6.70;;
26656;SDS011;14279;50.010;8.260;2024-02-16T04:56:44;13.00;;;5.70;;
26656;SDS011;14279;50.010;8.260;2024-02-16T04:59:10;9.70;;;6.33;;
26656;SDS011;14279;50.010;8.260;2024-02-16T05:01:35;14.20;;;6.33;;
26656;SDS011;14279;50.010;8.260;2024-02-16T05:04:00;17.40;;;5.97;;
26656;SDS011;14279;50.010;8.260;2024-02-16T05:06:27;16.40;;;6.17;;
26656;SDS011;14279;50.010;8.260;2024-02-16T05:08:52;12.23;;;7.00;;
26656;SDS011;14279;50.010;8.260;2024-02-16T05:11:18;9.17;;;5.50;;
26656;SDS011;14279;50.010;8.260;2024-02-16T05:13:44;14.00;;;6.93;;
26656;SDS011;14279;50.010;8.260;2024-02-16T05:16:10;13.67;;;5.70;;
26656;SDS011;14279;50.010;8.260;2024-02-16T05:18:39;12.00;;;6.53;;
26656;SDS011;14279;50.010;8.260;2024-02-16T05:21:05;15.80;;;6.50;;
26656;SDS011;14279;50.010;8.260;2024-02-16T05:23:31;13.20;;;6.50;;
26656;SDS011;14279;50.010;8.260;2024-02-16T05:25:56;13.40;;;6.50;;
26656;SDS011;14279;50.010;8.260;2024-02-16T05:28:21;11.90;;;5.93;;
26656;SDS011;14279;50.010;8.260;2024-02-16T05:30:47;12.43;;;6.53;;
26656;SDS011;14279;50.010;8.260;2024-02-16T05:33:12;12.33;;;7.40;;
26656;SDS011;14279;50.010;8.260;2024-02-16T05:35:39;11.50;;;6.37;;
26656;SDS011;14279;50.010;8.260;2024-02-16T05:38:05;16.67;;;6.90;;
26656;SDS011;14279;50.010;8.260;2024-02-16T05:40:54;13.93;;;6.03;;
26656;SDS011;14279;50.010;8.260;2024-02-16T05:43:21;12.90;;;6.50;;
26656;SDS011;14279;50.010;8.260;2024-02-16T05:45:48;14.83;;;6.03;;
26656;SDS011;14279;50.010;8.260;2024-02-16T05:48:13;12.53;;;6.00;;
26656;SDS011;14279;50.010;8.260;2024-02-16T05:50:39;15.20;;;6.53;;
26656;SDS011;14279;50.010;8.260;2024-02-16T05:53:04;8.90;;;5.97;;
26656;SDS011;14279;50.010;8.260;2024-02-16T05:55:29;14.23;;;6.40;;
26656;SDS011;14279;50.010;8.260;2024-02-16T05:57:54;15.40;;;6.87;;
26656;SDS011;14279;50.010;8.260;2024-02-16T06:00:20;13.53;;;5.83;;
26656;SDS011;14279;50.010;8.260;2024-02-16T06:02:46;11.93;;;6.23;;
26656;SDS011;14279;50.010;8.260;2024-02-16T06:05:12;26.67;;;6.80;;
26656;SDS011;14279;50.010;8.260;2024-02-16T06:07:38;17.60;;;6.57;;
26656;SDS011;14279;50.010;8.260;2024-02-16T06:10:03;11.50;;;6.40;;
26656;SDS011;14279;50.010;8.260;2024-02-16T06:12:32;19.73;;;7.27;;
26656;SDS011;14279;50.010;8.260;2024-02-16T06:14:58;11.57;;;5.70;;
26656;SDS011;14279;50.010;8.260;2024-02-16T06:17:23;10.17;;;5.57;;
26656;SDS011;14279;50.010;8.260;2024-02-16T06:19:49;14.63;;;6.30;;
26656;SDS011;14279;50.010;8.260;2024-02-16T06:22:14;15.27;;;6.37;;
26656;SDS011;14279;50.010;8.260;2024-02-16T06:24:39;15.20;;;6.60;;
26656;SDS011;14279;50.010;8.260;2024-02-16T06:27:05;18.80;;;6.67;;
26656;SDS011;14279;50.010;8.260;2024-02-16T06:29:30;11.50;;;6.53;;
26656;SDS011;14279;50.010;8.260;2024-02-16T06:31:56;15.70;;;6.83;;
26656;SDS011;14279;50.010;8.260;2024-02-16T06:34:21;14.23;;;6.87;;
26656;SDS011;14279;50.010;8.260;2024-02-16T06:36:47;11.00;;;6.57;;
26656;SDS011;14279;50.010;8.260;2024-02-16T06:39:13;12.43;;;7.30;;
26656;SDS011;14279;50.010;8.260;2024-02-16T06:41:41;12.17;;;7.47;;
26656;SDS011;14279;50.010;8.260;2024-02-16T06:44:09;16.60;;;7.13;;
26656;SDS011;14279;50.010;8.260;2024-02-16T06:46:34;9.93;;;5.97;;
26656;SDS011;14279;50.010;8.260;2024-02-16T06:48:59;12.00;;;6.30;;
26656;SDS011;14279;50.010;8.260;2024-02-16T06:51:25;15.90;;;7.23;;
26656;SDS011;14279;50.010;8.260;2024-02-16T06:53:51;8.40;;;6.20;;
26656;SDS011;14279;50.010;8.260;2024-02-16T06:56:17;14.00;;;7.10;;
26656;SDS011;14279;50.010;8.260;2024-02-16T06:58:43;14.40;;;6.50;;
26656;SDS011;14279;50.010;8.260;2024-02-16T07:01:09;21.60;;;6.90;;
26656;SDS011;14279;50.010;8.260;2024-02-16T07:03:37;13.00;;;7.37;;
26656;SDS011;14279;50.010;8.260;2024-02-16T07:06:02;11.70;;;6.90;;
26656;SDS011;14279;50.010;8.260;2024-02-16T07:08:29;14.23;;;7.87;;
26656;SDS011;14279;50.010;8.260;2024-02-16T07:10:54;11.30;;;7.20;;
26656;SDS011;14279;50.010;8.260;2024-02-16T07:13:21;11.30;;;7.20;;
26656;SDS011;14279;50.010;8.260;2024-02-16T07:15:47;14.60;;;7.30;;
26656;SDS011;14279;50.010;8.260;2024-02-16T07:18:12;25.47;;;8.13;;
26656;SDS011;14279;50.010;8.260;2024-02-16T07:20:38;15.67;;;7.17;;
26656;SDS011;14279;50.010;8.260;2024-02-16T07:23:03;12.07;;;7.13;;
26656;SDS011;14279;50.010;8.260;2024-02-16T07:25:28;17.67;;;7.80;;
26656;SDS011;14279;50.010;8.260;2024-02-16T07:27:54;10.33;;;6.30;;
26656;SDS011;14279;50.010;8.260;2024-02-16T07:30:19;34.10;;;7.70;;
26656;SDS011;14279;50.010;8.260;2024-02-16T07:32:50;9.53;;;6.13;;
26656;SDS011;14279;50.010;8.260;2024-02-16T07:35:17;19.23;;;6.93;;
26656;SDS011;14279;50.010;8.260;2024-02-16T07:37:42;19.63;;;7.80;;
26656;SDS011;14279;50.010;8.260;2024-02-16T07:40:08;15.27;;;6.93;;
26656;SDS011;14279;50.010;8.260;2024-02-16T07:42:37;18.10;;;7.37;;
26656;SDS011;14279;50.010;8.260;2024-02-16T07:45:04;11.87;;;6.97;;
26656;SDS011;14279;50.010;8.260;2024-02-16T07:47:31;18.90;;;7.20;;
26656;SDS011;14279;50.010;8.260;2024-02-16T07:49:57;14.33;;;6.73;;
26656;SDS011;14279;50.010;8.260;2024-02-16T07:52:22;10.67;;;6.63;;
26656;SDS011;14279;50.010;8.260;2024-02-16T07:54:47;16.03;;;8.47;;
26656;SDS011;14279;50.010;8.260;2024-02-16T07:57:13;16.53;;;7.20;;
26656;SDS011;14279;50.010;8.260;2024-02-16T07:59:38;10.33;;;7.03;;
26656;SDS011;14279;50.010;8.260;2024-02-16T08:02:05;11.80;;;7.60;;
26656;SDS011;14279;50.010;8.260;2024-02-16T08:04:32;14.93;;;7.23;;
26656;SDS011;14279;50.010;8.260;2024-02-16T08:06:57;12.33;;;6.93;;
26656;SDS011;14279;50.010;8.260;2024-02-16T08:09:22;21.93;;;7.80;;
26656;SDS011;14279;50.010;8.260;2024-02-16T08:11:48;14.23;;;8.07;;
26656;SDS011;14279;50.010;8.260;2024-02-16T08:14:13;12.63;;;7.90;;
26656;SDS011;14279;50.010;8.260;2024-02-16T08:16:38;18.47;;;8.17;;
26656;SDS011;14279;50.010;8.260;2024-02-16T08:19:03;18.50;;;8.23;;
26656;SDS011;14279;50.010;8.260;2024-02-16T08:21:29;16.87;;;8.00;;
26656;SDS011;14279;50.010;8.260;2024-02-16T08:23:54;40.77;;;7.97;;
26656;SDS011;14279;50.010;8.260;2024-02-16T08:26:19;15.50;;;7.93;;
26656;SDS011;14279;50.010;8.260;2024-02-16T08:28:44;21.50;;;7.77;;
26656;SDS011;14279;50.010;8.260;2024-02-16T08:31:14;26.37;;;8.23;;
26656;SDS011;14279;50.010;8.260;2024-02-16T08:33:40;21.00;;;8.30;;
26656;SDS011;14279;50.010;8.260;2024-02-16T08:36:07;14.83;;;7.70;;
26656;SDS011;14279;50.010;8.260;2024-02-16T08:38:32;21.63;;;7.80;;
26656;SDS011;14279;50.010;8.260;2024-02-16T08:40:57;15.97;;;7.80;;
26656;SDS011;14279;50.010;8.260;2024-02-16T08:43:24;16.70;;;7.77;;
26656;SDS011;14279;50.010;8.260;2024-02-16T08:45:51;15.23;;;8.30;;
26656;SDS011;14279;50.010;8.260;2024-02-16T08:48:29;14.00;;;8.63;;
26656;SDS011;14279;50.010;8.260;2024-02-16T08:50:59;11.70;;;8.27;;
26656;SDS011;14279;50.010;8.260;2024-02-16T08:53:34;19.97;;;8.30;;
26656;SDS011;14279;50.010;8.260;2024-02-16T08:55:59;18.70;;;9.17;;
26656;SDS011;14279;50.010;8.260;2024-02-16T08:58:25;18.30;;;8.50;;
26656;SDS011;14279;50.010;8.260;2024-02-16T09:00:50;19.60;;;8.90;;
26656;SDS011;14279;50.010;8.260;2024-02-16T09:03:15;17.60;;;8.80;;
26656;SDS011;14279;50.010;8.260;2024-02-16T09:05:49;19.53;;;8.90;;
26656;SDS011;14279;50.010;8.260;2024-02-16T09:08:14;15.80;;;9.90;;
26656;SDS011;14279;50.010;8.260;2024-02-16T09:10:40;15.17;;;8.70;;
26656;SDS011;14279;50.010;8.260;2024-02-16T09:13:08;17.00;;;8.67;;
26656;SDS011;14279;50.010;8.260;2024-02-16T09:15:34;16.20;;;8.57;;
26656;SDS011;14279;50.010;8.260;2024-02-16T09:18:03;15.83;;;8.97;;
26656;SDS011;14279;50.010;8.260;2024-02-16T09:20:28;13.83;;;8.80;;
26656;SDS011;14279;50.010;8.260;2024-02-16T09:22:53;21.60;;;8.17;;
26656;SDS011;14279;50.010;8.260;2024-02-16T09:25:19;22.70;;;8.80;;
26656;SDS011;14279;50.010;8.260;2024-02-16T09:27:44;12.13;;;7.67;;
26656;SDS011;14279;50.010;8.260;2024-02-16T09:30:10;14.90;;;8.47;;
26656;SDS011;14279;50.010;8.260;2024-02-16T09:32:39;15.97;;;8.47;;
26656;SDS011;14279;50.010;8.260;2024-02-16T09:35:04;19.63;;;9.60;;
26656;SDS011;14279;50.010;8.260;2024-02-16T09:37:30;17.20;;;9.13;;
26656;SDS011;14279;50.010;8.260;2024-02-16T09:39:55;18.47;;;8.73;;
26656;SDS011;14279;50.010;8.260;2024-02-16T09:42:21;16.00;;;7.73;;
26656;SDS011;14279;50.010;8.260;2024-02-16T09:44:48;13.60;;;8.20;;
26656;SDS011;14279;50.010;8.260;2024-02-16T09:47:14;13.07;;;8.60;;
26656;SDS011;14279;50.010;8.260;2024-02-16T09:49:44;14.00;;;8.03;;
26656;SDS011;14279;50.010;8.260;2024-02-16T09:52:09;28.27;;;8.37;;
26656;SDS011;14279;50.010;8.260;2024-02-16T09:54:38;15.67;;;9.30;;
26656;SDS011;14279;50.010;8.260;2024-02-16T09:57:04;12.40;;;8.33;;
26656;SDS011;14279;50.010;8.260;2024-02-16T09:59:30;24.63;;;9.40;;
26656;SDS011;14279;50.010;8.260;2024-02-16T10:02:00;21.63;;;8.53;;
26656;SDS011;14279;50.010;8.260;2024-02-16T10:04:26;10.90;;;8.30;;
26656;SDS011;14279;50.010;8.260;2024-02-16T10:06:52;11.60;;;7.80;;
26656;SDS011;14279;50.010;8.260;2024-02-16T10:09:27;13.77;;;8.43;;
26656;SDS011;14279;50.010;8.260;2024-02-16T10:11:59;30.67;;;7.27;;
26656;SDS011;14279;50.010;8.260;2024-02-16T10:14:25;15.63;;;8.20;;
26656;SDS011;14279;50.010;8.260;2024-02-16T10:17:04;13.70;;;8.47;;
26656;SDS011;14279;50.010;8.260;2024-02-16T10:19:31;18.23;;;8.23;;
26656;SDS011;14279;50.010;8.260;2024-02-16T10:22:08;12.97;;;8.20;;
26656;SDS011;14279;50.010;8.260;2024-02-16T10:24:36;16.83;;;7.30;;
26656;SDS011;14279;50.010;8.260;2024-02-16T10:27:13;12.67;;;7.60;;
26656;SDS011;14279;50.010;8.260;2024-02-16T10:29:41;12.20;;;7.80;;
26656;SDS011;14279;50.010;8.260;2024-02-16T10:32:10;13.73;;;7.37;;
26656;SDS011;14279;50.010;8.260;2024-02-16T10:34:36;11.07;;;7.30;;
26656;SDS011;14279;50.010;8.260;2024-02-16T10:37:04;10.07;;;7.93;;
26656;SDS011;14279;50.010;8.260;2024-02-16T10:39:31;16.53;;;8.00;;
26656;SDS011;14279;50.010;8.260;2024-02-16T10:42:09;15.07;;;7.07;;
26656;SDS011;14279;50.010;8.260;2024-02-16T10:44:43;15.80;;;7.60;;
26656;SDS011;14279;50.010;8.260;2024-02-16T10:47:10;10.43;;;6.30;;
26656;SDS011;14279;50.010;8.260;2024-02-16T10:49:35;11.77;;;7.10;;
26656;SDS011;14279;50.010;8.260;2024-02-16T10:52:00;12.03;;;7.00;;
26656;SDS011;14279;50.010;8.260;2024-02-16T10:54:29;12.67;;;7.10;;
26656;SDS011;14279;50.010;8.260;2024-02-16T10:56:57;11.40;;;7.00;;
26656;SDS011;14279;50.010;8.260;2024-02-16T10:59:23;10.60;;;6.40;;
26656;SDS011;14279;50.010;8.260;2024-02-16T11:01:58;14.20;;;7.13;;
26656;SDS011;14279;50.010;8.260;2024-02-16T11:04:25;9.60;;;6.20;;
26656;SDS011;14279;50.010;8.260;2024-02-16T11:07:01;10.10;;;6.33;;
26656;SDS011;14279;50.010;8.260;2024-02-16T11:09:30;9.47;;;6.67;;
26656;SDS011;14279;50.010;8.260;2024-02-16T11:12:00;14.67;;;6.87;;
26656;SDS011;14279;50.010;8.260;2024-02-16T11:14:36;10.50;;;6.67;;
26656;SDS011;14279;50.010;8.260;2024-02-16T11:17:07;15.63;;;6.20;;
26656;SDS011;14279;50.010;8.260;2024-02-16T11:19:36;10.23;;;6.63;;
26656;SDS011;14279;50.010;8.260;2024-02-16T11:22:05;15.63;;;6.53;;
26656;SDS011;14279;50.010;8.260;2024-02-16T11:24:33;13.47;;;6.23;;
26656;SDS011;14279;50.010;8.260;2024-02-16T11:27:07;9.93;;;6.50;;
26656;SDS011;14279;50.010;8.260;2024-02-16T11:29:33;11.63;;;6.70;;
26656;SDS011;14279;50.010;8.260;2024-02-16T11:32:00;10.13;;;6.00;;
26656;SDS011;14279;50.010;8.260;2024-02-16T11:34:27;9.97;;;6.50;;
26656;SDS011;14279;50.010;8.260;2024-02-16T11:36:59;11.23;;;6.40;;
26656;SDS011;14279;50.010;8.260;2024-02-16T11:39:28;11.83;;;6.20;;
26656;SDS011;14279;50.010;8.260;2024-02-16T11:42:08;9.07;;;5.50;;
26656;SDS011;14279;50.010;8.260;2024-02-16T11:44:39;10.00;;;5.80;;
26656;SDS011;14279;50.010;8.260;2024-02-16T11:47:05;13.73;;;5.80;;
26656;SDS011;14279;50.010;8.260;2024-02-16T11:49:35;13.73;;;4.93;;
26656;SDS011;14279;50.010;8.260;2024-02-16T11:52:01;9.43;;;5.57;;
26656;SDS011;14279;50.010;8.260;2024-02-16T11:54:29;10.20;;;5.20;;
26656;SDS011;14279;50.010;8.260;2024-02-16T11:56:55;15.63;;;5.90;;
26656;SDS011;14279;50.010;8.260;2024-02-16T11:59:21;8.87;;;5.60;;
26656;SDS011;14279;50.010;8.260;2024-02-16T12:01:53;10.43;;;6.00;;
26656;SDS011;14279;50.010;8.260;2024-02-16T12:04:24;13.07;;;5.97;;
26656;SDS011;14279;50.010;8.260;2024-02-16T12:06:57;11.83;;;5.97;;
26656;SDS011;14279;50.010;8.260;2024-02-16T12:09:24;8.23;;;4.80;;
26656;SDS011;14279;50.010;8.260;2024-02-16T12:11:50;8.77;;;5.03;;
26656;SDS011;14279;50.010;8.260;2024-02-16T12:14:17;5.73;;;4.47;;
26656;SDS011;14279;50.010;8.260;2024-02-16T12:16:49;14.90;;;4.63;;
26656;SDS011;14279;50.010;8.260;2024-02-16T12:19:36;7.63;;;4.83;;
26656;SDS011;14279;50.010;8.260;2024-02-16T12:22:41;6.90;;;4.17;;
26656;SDS011;14279;50.010;8.260;2024-02-16T12:25:09;10.27;;;4.77;;
26656;SDS011;14279;50.010;8.260;2024-02-16T12:27:37;12.97;;;5.17;;
26656;SDS011;14279;50.010;8.260;2024-02-16T12:30:06;7.23;;;4.20;;
26656;SDS011;14279;50.010;8.260;2024-02-16T12:32:33;10.03;;;4.77;;
26656;SDS011;14279;50.010;8.260;2024-02-16T12:34:59;9.97;;;4.00;;
26656;SDS011;14279;50.010;8.260;2024-02-16T12:37:24;9.90;;;4.30;;
26656;SDS011;14279;50.010;8.260;2024-02-16T12:39:50;7.10;;;4.30;;
26656;SDS011;14279;50.010;8.260;2024-02-16T12:42:16;8.30;;;3.70;;
26656;SDS011;14279;50.010;8.260;2024-02-16T12:44:41;6.50;;;3.50;;
26656;SDS011;14279;50.010;8.260;2024-02-16T12:47:06;6.60;;;3.50;;
26656;SDS011;14279;50.010;8.260;2024-02-16T12:49:32;6.50;;;3.93;;
26656;SDS011;14279;50.010;8.260;2024-02-16T12:51:57;8.17;;;3.60;;
26656;SDS011;14279;50.010;8.260;2024-02-16T12:54:22;12.63;;;4.10;;
26656;SDS011;14279;50.010;8.260;2024-02-16T12:56:50;7.33;;;4.50;;
26656;SDS011;14279;50.010;8.260;2024-02-16T12:59:24;9.83;;;3.90;;
26656;SDS011;14279;50.010;8.260;2024-02-16T13:01:51;11.23;;;3.60;;
26656;SDS011;14279;50.010;8.260;2024-02-16T13:04:16;9.87;;;3.97;;
26656;SDS011;14279;50.010;8.260;2024-02-16T13:06:46;7.97;;;3.40;;
26656;SDS011;14279;50.010;8.260;2024-02-16T13:09:21;12.40;;;4.20;;
26656;SDS011;14279;50.010;8.260;2024-02-16T13:12:01;8.73;;;3.83;;
26656;SDS011;14279;50.010;8.260;2024-02-16T13:14:32;10.70;;;3.77;;
26656;SDS011;14279;50.010;8.260;2024-02-16T13:17:00;4.53;;;2.93;;
26656;SDS011;14279;50.010;8.260;2024-02-16T13:19:34;4.40;;;2.90;;
26656;SDS011;14279;50.010;8.260;2024-02-16T13:22:44;12.07;;;3.90;;
26656;SDS011;14279;50.010;8.260;2024-02-16T13:26:04;5.53;;;3.53;;
26656;SDS011;14279;50.010;8.260;2024-02-16T13:28:58;10.20;;;3.80;;
26656;SDS011;14279;50.010;8.260;2024-02-16T13:31:23;7.43;;;2.90;;
26656;SDS011;14279;50.010;8.260;2024-02-16T13:33:49;7.10;;;3.63;;
26656;SDS011;14279;50.010;8.260;2024-02-16T13:36:15;9.23;;;3.97;;
26656;SDS011;14279;50.010;8.260;2024-02-16T13:38:41;8.37;;;3.90;;
26656;SDS011;14279;50.010;8.260;2024-02-16T13:41:06;9.47;;;4.00;;
26656;SDS011;14279;50.010;8.260;2024-02-16T13:43:31;7.00;;;3.33;;
26656;SDS011;14279;50.010;8.260;2024-02-16T13:45:56;8.53;;;3.73;;
26656;SDS011;14279;50.010;8.260;2024-02-16T13:48:23;9.27;;;3.83;;
26656;SDS011;14279;50.010;8.260;2024-02-16T13:50:49;8.80;;;3.70;;
26656;SDS011;14279;50.010;8.260;2024-02-16T13:53:15;9.43;;;3.97;;
26656;SDS011;14279;50.010;8.260;2024-02-16T13:55:44;13.70;;;4.57;;
26656;SDS011;14279;50.010;8.260;2024-02-16T13:58:12;9.30;;;4.77;;
26656;SDS011;14279;50.010;8.260;2024-02-16T14:00:38;6.17;;;3.60;;
26656;SDS011;14279;50.010;8.260;2024-02-16T14:03:04;8.90;;;4.00;;
26656;SDS011;14279;50.010;8.260;2024-02-16T14:05:35;11.13;;;4.00;;
26656;SDS011;14279;50.010;8.260;2024-02-16T14:08:02;18.37;;;4.13;;
26656;SDS011;14279;50.010;8.260;2024-02-16T14:10:30;13.20;;;4.00;;
26656;SDS011;14279;50.010;8.260;2024-02-16T14:13:14;12.73;;;4.50;;
26656;SDS011;14279;50.010;8.260;2024-02-16T14:15:47;15.07;;;4.40;;
26656;SDS011;14279;50.010;8.260;2024-02-16T14:18:16;11.50;;;4.43;;
26656;SDS011;14279;50.010;8.260;2024-02-16T14:20:41;11.13;;;4.67;;
26656;SDS011;14279;50.010;8.260;2024-02-16T14:23:07;21.23;;;4.77;;
26656;SDS011;14279;50.010;8.260;2024-02-16T14:25:35;7.90;;;4.17;;
26656;SDS011;14279;50.010;8.260;2024-02-16T14:28:02;9.10;;;4.00;;
26656;SDS011;14279;50.010;8.260;2024-02-16T14:30:28;15.07;;;3.70;;
26656;SDS011;14279;50.010;8.260;2024-02-16T14:32:54;5.90;;;2.63;;
26656;SDS011;14279;50.010;8.260;2024-02-16T14:35:19;8.03;;;2.93;;
26656;SDS011;14279;50.010;8.260;2024-02-16T14:37:44;7.10;;;3.87;;